createdAt,value
2018-02-16T00:02:06.467Z,1.30
2018-02-16T00:04:34.733Z,1.30
2018-02-16T00:07:02.271Z,1.30
2018-02-16T00:09:29.802Z,1.30
2018-02-16T00:11:57.312Z,1.30
2018-02-16T00:14:25.615Z,1.40
2018-02-16T00:16:53.116Z,1.30
2018-02-16T00:19:20.648Z,1.40
2018-02-16T00:21:48.155Z,1.60
2018-02-16T00:24:15.692Z,1.50
2018-02-16T00:26:43.222Z,1.40
2018-02-16T00:29:10.734Z,1.30
2018-02-16T00:31:38.263Z,1.30
2018-02-16T00:34:05.774Z,1.30
2018-02-16T00:36:34.070Z,1.30
2018-02-16T00:39:01.584Z,1.30
2018-02-16T00:41:29.114Z,1.20
2018-02-16T00:43:56.621Z,1.20
2018-02-16T00:46:24.926Z,1.20
2018-02-16T00:48:52.438Z,1.20
2018-02-16T00:51:19.948Z,1.20
2018-02-16T00:53:47.479Z,1.20
2018-02-16T00:56:15.759Z,1.10
2018-02-16T00:58:44.025Z,1.10
2018-02-16T01:01:11.570Z,1.10
2018-02-16T01:03:39.080Z,1.10
2018-02-16T01:06:06.619Z,1.10
2018-02-16T01:08:34.886Z,0.90
2018-02-16T01:11:03.180Z,0.80
2018-02-16T01:13:30.689Z,0.80
2018-02-16T01:15:58.213Z,0.80
2018-02-16T01:18:25.718Z,0.80
2018-02-16T01:20:53.244Z,0.80
2018-02-16T01:23:20.745Z,0.80
2018-02-16T01:25:48.272Z,0.70
2018-02-16T01:28:15.778Z,0.80
2018-02-16T01:30:44.076Z,1.60
2018-02-16T01:33:11.587Z,1.60
2018-02-16T01:35:39.115Z,1.90
2018-02-16T01:38:06.640Z,2.10
2018-02-16T01:40:34.138Z,2.30
2018-02-16T01:43:01.666Z,2.50
2018-02-16T01:45:29.174Z,2.50
2018-02-16T01:47:56.712Z,2.60
2018-02-16T01:50:24.213Z,2.70
2018-02-16T01:52:52.487Z,2.90
2018-02-16T01:55:20.020Z,2.80
2018-02-16T01:57:47.521Z,2.90
2018-02-16T02:00:15.830Z,2.90
2018-02-16T02:02:43.337Z,2.90
2018-02-16T02:05:10.882Z,3.00
2018-02-16T02:07:38.383Z,3.00
2018-02-16T02:10:06.684Z,2.90
2018-02-16T02:12:34.184Z,2.90
2018-02-16T02:15:01.712Z,2.90
2018-02-16T02:17:29.244Z,3.00
2018-02-16T02:19:56.750Z,3.00
2018-02-16T02:22:24.276Z,3.00
2018-02-16T02:24:51.880Z,2.90
2018-02-16T02:27:19.478Z,3.00
2018-02-16T02:29:47.048Z,3.00
2018-02-16T02:32:14.608Z,3.00
2018-02-16T02:34:42.189Z,3.00
2018-02-16T02:37:09.785Z,2.90
2018-02-16T02:39:38.114Z,2.90
2018-02-16T02:42:06.593Z,3.00
2018-02-16T02:44:34.206Z,2.90
2018-02-16T02:47:01.739Z,2.90
2018-02-16T02:49:29.254Z,2.90
2018-02-16T02:51:57.549Z,2.90
2018-02-16T02:54:25.059Z,2.80
2018-02-16T02:56:52.685Z,2.80
2018-02-16T02:59:21.024Z,2.80
2018-02-16T03:01:49.426Z,2.80
2018-02-16T03:04:17.032Z,2.80
2018-02-16T03:06:44.589Z,2.80
2018-02-16T03:09:12.192Z,2.70
2018-02-16T03:11:39.756Z,2.80
2018-02-16T03:14:07.284Z,2.80
2018-02-16T03:16:34.819Z,2.80
2018-02-16T03:19:02.373Z,2.80
2018-02-16T03:21:29.883Z,2.90
2018-02-16T03:23:58.165Z,2.80
2018-02-16T03:26:26.472Z,2.90
2018-02-16T03:28:54.028Z,2.90
2018-02-16T03:31:21.605Z,2.80
2018-02-16T03:33:49.122Z,2.90
2018-02-16T03:36:20.427Z,2.80
2018-02-16T03:38:47.930Z,2.80
2018-02-16T03:41:15.458Z,2.70
2018-02-16T03:43:42.986Z,2.80
2018-02-16T03:46:10.500Z,2.70
2018-02-16T03:48:38.811Z,2.70
2018-02-16T03:51:06.343Z,2.70
2018-02-16T03:53:33.863Z,2.60
2018-02-16T03:56:01.395Z,2.70
2018-02-16T03:58:28.912Z,2.60
2018-02-16T04:00:57.212Z,2.60
2018-02-16T04:03:24.752Z,2.60
2018-02-16T04:05:53.023Z,2.60
2018-02-16T04:08:21.318Z,2.70
2018-02-16T04:10:48.832Z,2.70
2018-02-16T04:13:16.377Z,2.80
2018-02-16T04:15:43.885Z,2.70
2018-02-16T04:18:12.189Z,2.50
2018-02-16T04:20:39.809Z,2.50
2018-02-16T04:23:08.154Z,2.40
2018-02-16T04:25:35.749Z,2.40
2018-02-16T04:28:04.065Z,2.30
2018-02-16T04:30:31.704Z,2.30
2018-02-16T04:32:59.292Z,2.30
2018-02-16T04:35:26.870Z,2.30
2018-02-16T04:37:54.408Z,2.30
2018-02-16T04:40:22.000Z,2.30
2018-02-16T04:42:49.548Z,2.30
2018-02-16T04:45:17.083Z,2.30
2018-02-16T04:47:44.593Z,2.30
2018-02-16T04:50:12.128Z,2.30
2018-02-16T04:52:39.636Z,2.30
2018-02-16T04:55:07.907Z,2.10
2018-02-16T04:57:36.203Z,2.00
2018-02-16T05:00:03.740Z,2.00
2018-02-16T05:02:32.019Z,1.90
2018-02-16T05:05:00.317Z,2.10
2018-02-16T05:07:27.822Z,2.00
2018-02-16T05:09:55.347Z,2.10
2018-02-16T05:12:22.883Z,2.00
2018-02-16T05:14:50.419Z,2.00
2018-02-16T05:17:18.722Z,2.00
2018-02-16T05:19:46.267Z,2.00
2018-02-16T05:22:14.609Z,1.80
2018-02-16T05:24:42.165Z,1.80
2018-02-16T05:27:09.712Z,1.80
2018-02-16T05:29:37.256Z,1.70
2018-02-16T05:32:04.766Z,1.60
2018-02-16T05:34:32.314Z,1.60
2018-02-16T05:36:59.831Z,1.60
2018-02-16T05:39:27.344Z,1.60
2018-02-16T05:41:54.883Z,1.50
2018-02-16T05:44:22.391Z,1.70
2018-02-16T05:46:49.942Z,1.70
2018-02-16T05:49:18.212Z,1.70
2018-02-16T05:51:46.489Z,1.80
2018-02-16T05:54:14.783Z,1.80
2018-02-16T05:56:42.300Z,1.80
2018-02-16T06:01:43.800Z,1.80
2018-02-16T06:04:12.114Z,1.80
2018-02-16T06:06:39.624Z,1.80
2018-02-16T06:09:07.899Z,1.70
2018-02-16T06:11:35.472Z,1.70
2018-02-16T06:14:03.752Z,1.80
2018-02-16T06:16:31.601Z,1.70
2018-02-16T06:18:59.143Z,1.70
2018-02-16T06:21:26.655Z,1.70
2018-02-16T06:23:54.203Z,1.60
2018-02-16T06:26:21.719Z,1.70
2018-02-16T06:28:49.257Z,1.60
2018-02-16T06:31:16.806Z,1.60
2018-02-16T06:33:44.322Z,1.50
2018-02-16T06:36:12.634Z,1.40
2018-02-16T06:38:40.174Z,1.40
2018-02-16T06:41:07.710Z,1.50
2018-02-16T06:43:35.219Z,1.50
2018-02-16T06:46:02.768Z,1.40
2018-02-16T06:48:30.239Z,1.60
2018-02-16T06:50:58.568Z,1.50
2018-02-16T06:53:26.846Z,1.50
2018-02-16T06:55:55.152Z,1.50
2018-02-16T06:58:22.665Z,1.50
2018-02-16T07:00:50.212Z,1.60
2018-02-16T07:03:17.739Z,1.70
2018-02-16T07:05:45.266Z,1.70
2018-02-16T07:08:13.580Z,1.60
2018-02-16T07:10:41.116Z,1.60
2018-02-16T07:13:08.654Z,1.60
2018-02-16T07:15:36.927Z,1.50
2018-02-16T07:18:05.200Z,1.50
2018-02-16T07:20:32.756Z,1.50
2018-02-16T07:23:00.260Z,1.60
2018-02-16T07:25:27.772Z,1.70
2018-02-16T07:27:55.308Z,1.80
2018-02-16T07:30:22.844Z,2.00
2018-02-16T07:32:50.356Z,2.10
2018-02-16T07:35:17.883Z,2.20
2018-02-16T07:37:45.392Z,2.10
2018-02-16T07:40:13.696Z,2.20
2018-02-16T07:42:41.211Z,2.20
2018-02-16T07:45:08.745Z,2.20
2018-02-16T07:47:36.258Z,2.20
2018-02-16T07:50:03.801Z,2.20
2018-02-16T07:52:32.111Z,2.30
2018-02-16T07:54:59.623Z,2.30
2018-02-16T07:57:27.131Z,2.30
2018-02-16T07:59:54.682Z,2.50
2018-02-16T08:02:22.187Z,2.50
2018-02-16T08:04:49.691Z,2.70
2018-02-16T08:07:17.233Z,2.70
2018-02-16T08:09:45.508Z,2.70
2018-02-16T08:12:13.914Z,2.80
2018-02-16T08:14:41.431Z,2.80
2018-02-16T08:17:08.937Z,2.90
2018-02-16T08:19:36.471Z,2.90
2018-02-16T08:22:04.744Z,3.10
2018-02-16T08:24:33.055Z,3.20
2018-02-16T08:27:00.559Z,3.20
2018-02-16T08:29:28.099Z,3.30
2018-02-16T08:31:55.607Z,3.30
2018-02-16T08:34:23.119Z,3.50
2018-02-16T08:36:50.681Z,3.50
2018-02-16T08:39:18.199Z,3.50
2018-02-16T08:41:45.712Z,3.50
2018-02-16T08:44:13.250Z,3.50
2018-02-16T08:46:40.800Z,3.60
2018-02-16T08:49:08.331Z,3.70
2018-02-16T08:51:35.841Z,3.70
2018-02-16T08:54:03.375Z,3.80
2018-02-16T08:56:30.939Z,3.90
2018-02-16T08:58:59.215Z,4.00
2018-02-16T09:01:27.493Z,4.10
2018-02-16T09:03:55.034Z,4.10
2018-02-16T09:06:22.544Z,4.10
2018-02-16T09:08:50.080Z,4.10
2018-02-16T09:11:17.597Z,4.20
2018-02-16T09:13:45.183Z,4.20
2018-02-16T09:16:12.695Z,4.30
2018-02-16T09:18:40.975Z,4.30
2018-02-16T09:21:09.278Z,4.50
2018-02-16T09:23:36.811Z,4.40
2018-02-16T09:26:05.112Z,4.50
2018-02-16T09:28:32.622Z,4.50
2018-02-16T09:31:00.159Z,4.60
2018-02-16T09:33:27.696Z,4.70
2018-02-16T09:35:55.743Z,4.70
2018-02-16T09:38:24.032Z,4.80
2018-02-16T09:40:51.572Z,4.80
2018-02-16T09:43:19.847Z,4.90
2018-02-16T09:45:48.144Z,5.00
2018-02-16T09:48:15.664Z,5.00
2018-02-16T09:50:43.210Z,5.00
2018-02-16T09:53:10.715Z,5.10
2018-02-16T09:55:38.214Z,5.10
2018-02-16T09:58:05.745Z,5.10
2018-02-16T10:00:33.260Z,5.10
2018-02-16T10:03:01.583Z,5.30
2018-02-16T10:05:29.095Z,5.30
2018-02-16T10:07:56.632Z,5.40
2018-02-16T10:10:24.142Z,5.50
2018-02-16T10:12:52.446Z,5.80
2018-02-16T10:15:20.287Z,5.80
2018-02-16T10:17:48.568Z,5.80
2018-02-16T10:20:16.082Z,5.90
2018-02-16T10:22:43.609Z,5.90
2018-02-16T10:25:11.116Z,6.00
2018-02-16T10:27:38.660Z,5.90
2018-02-16T10:30:06.968Z,5.70
2018-02-16T10:32:35.249Z,5.60
2018-02-16T10:35:03.550Z,5.50
2018-02-16T10:37:31.079Z,5.50
2018-02-16T10:39:59.359Z,5.30
2018-02-16T10:42:27.655Z,5.20
2018-02-16T10:44:55.167Z,5.20
2018-02-16T10:47:22.704Z,5.30
2018-02-16T10:49:50.241Z,5.40
2018-02-16T10:52:17.747Z,5.40
2018-02-16T10:54:45.283Z,5.50
2018-02-16T10:57:12.791Z,5.70
2018-02-16T10:59:41.100Z,5.90
2018-02-16T11:02:14.196Z,5.90
2018-02-16T11:04:47.348Z,5.80
2018-02-16T11:07:21.405Z,5.80
2018-02-16T11:09:48.942Z,5.80
2018-02-16T11:12:16.498Z,5.90
2018-02-16T11:14:44.002Z,6.00
2018-02-16T11:17:11.534Z,6.10
2018-02-16T11:19:39.040Z,6.20
2018-02-16T11:22:06.575Z,6.20
2018-02-16T11:24:34.079Z,6.20
2018-02-16T11:27:02.388Z,6.00
2018-02-16T11:29:29.923Z,6.00
2018-02-16T11:31:57.460Z,6.00
2018-02-16T11:34:25.726Z,6.20
2018-02-16T11:36:53.267Z,6.10
2018-02-16T11:39:20.904Z,6.20
2018-02-16T11:41:48.411Z,6.10
2018-02-16T11:44:15.919Z,6.20
2018-02-16T11:46:43.455Z,6.00
2018-02-16T11:49:10.974Z,5.80
2018-02-16T11:51:38.503Z,5.80
2018-02-16T11:54:06.050Z,5.70
2018-02-16T11:56:33.554Z,5.80
2018-02-16T11:59:01.092Z,5.70
2018-02-16T12:01:28.633Z,5.70
2018-02-16T12:03:56.138Z,5.80
2018-02-16T12:06:23.688Z,6.00
2018-02-16T12:08:51.198Z,6.20
2018-02-16T12:11:18.709Z,6.30
2018-02-16T12:13:46.240Z,6.40
2018-02-16T12:16:13.776Z,6.40
2018-02-16T12:18:41.312Z,6.40
2018-02-16T12:21:09.600Z,6.60
2018-02-16T12:23:37.143Z,6.60
2018-02-16T12:26:05.420Z,6.60
2018-02-16T12:28:33.700Z,6.60
2018-02-16T12:31:02.003Z,6.50
2018-02-16T12:33:29.516Z,6.50
2018-02-16T12:35:57.050Z,6.40
2018-02-16T12:38:24.555Z,6.30
2018-02-16T12:40:52.851Z,6.30
2018-02-16T12:43:20.382Z,6.30
2018-02-16T12:45:48.660Z,6.30
2018-02-16T12:48:16.962Z,6.30
2018-02-16T12:50:44.469Z,6.30
2018-02-16T12:53:12.009Z,6.50
2018-02-16T12:55:39.523Z,6.60
2018-02-16T12:58:07.831Z,6.90
2018-02-16T13:00:35.327Z,6.90
2018-02-16T13:03:02.856Z,7.10
2018-02-16T13:05:30.359Z,7.10
2018-02-16T13:07:58.677Z,7.30
2018-02-16T13:10:26.176Z,7.30
2018-02-16T13:12:53.679Z,7.30
2018-02-16T13:15:21.220Z,7.40
2018-02-16T13:17:49.487Z,7.50
2018-02-16T13:20:17.784Z,7.60
2018-02-16T13:22:46.057Z,7.60
2018-02-16T13:25:14.362Z,7.60
2018-02-16T13:27:41.870Z,7.50
2018-02-16T13:30:09.407Z,7.60
2018-02-16T13:32:36.916Z,7.60
2018-02-16T13:35:05.219Z,7.60
2018-02-16T13:37:32.731Z,7.60
2018-02-16T13:40:01.049Z,7.50
2018-02-16T13:42:28.579Z,7.50
2018-02-16T13:44:56.848Z,7.70
2018-02-16T13:47:25.163Z,7.60
2018-02-16T13:49:53.524Z,7.60
2018-02-16T13:52:21.039Z,7.60
2018-02-16T13:54:48.570Z,7.70
2018-02-16T13:57:16.072Z,7.70
2018-02-16T13:59:43.606Z,7.80
2018-02-16T14:02:11.111Z,7.80
2018-02-16T14:04:39.408Z,7.60
2018-02-16T14:07:06.922Z,7.60
2018-02-16T14:09:35.283Z,7.60
2018-02-16T14:12:02.814Z,7.60
2018-02-16T14:14:30.325Z,7.60
2018-02-16T14:17:00.197Z,7.60
2018-02-16T14:19:27.741Z,7.60
2018-02-16T14:21:55.274Z,7.70
2018-02-16T14:24:23.558Z,7.60
2018-02-16T14:26:51.962Z,7.60
2018-02-16T14:29:19.468Z,7.60
2018-02-16T14:31:46.969Z,7.60
2018-02-16T14:34:14.508Z,7.60
2018-02-16T14:36:42.796Z,7.50
2018-02-16T14:39:10.345Z,7.50
2018-02-16T14:41:38.627Z,7.60
2018-02-16T14:44:06.899Z,7.60
2018-02-16T14:46:35.202Z,7.50
2018-02-16T14:49:02.728Z,7.50
2018-02-16T14:51:31.031Z,7.40
2018-02-16T14:53:58.535Z,7.40
2018-02-16T14:56:26.034Z,7.40
2018-02-16T14:58:54.338Z,7.30
2018-02-16T15:01:21.840Z,7.40
2018-02-16T15:03:49.369Z,7.40
2018-02-16T15:06:16.916Z,7.40
2018-02-16T15:08:44.419Z,7.30
2018-02-16T15:11:11.921Z,7.30
2018-02-16T15:13:39.459Z,7.30
2018-02-16T15:16:07.761Z,7.30
2018-02-16T15:18:35.267Z,7.30
2018-02-16T15:21:02.796Z,7.20
2018-02-16T15:23:30.340Z,7.20
2018-02-16T15:25:57.958Z,7.20
2018-02-16T15:28:25.469Z,7.10
2018-02-16T15:30:52.999Z,7.10
2018-02-16T15:33:21.268Z,7.00
2018-02-16T15:35:49.572Z,7.10
2018-02-16T15:38:17.118Z,7.10
2018-02-16T15:40:45.384Z,6.80
2018-02-16T15:43:13.660Z,6.80
2018-02-16T15:45:41.961Z,6.80
2018-02-16T15:48:09.464Z,6.70
2018-02-16T15:50:37.016Z,6.80
2018-02-16T15:53:04.519Z,6.80
2018-02-16T15:55:32.788Z,6.70
2018-02-16T15:58:01.083Z,6.60
2018-02-16T16:00:28.591Z,6.60
2018-02-16T16:02:56.119Z,6.50
2018-02-16T16:05:23.619Z,6.50
2018-02-16T16:07:51.147Z,6.50
2018-02-16T16:10:18.691Z,6.40
2018-02-16T16:12:46.183Z,6.40
2018-02-16T16:15:13.699Z,6.40
2018-02-16T16:17:41.207Z,6.40
2018-02-16T16:20:08.738Z,6.30
2018-02-16T16:22:36.242Z,6.10
2018-02-16T16:25:03.760Z,6.10
2018-02-16T16:27:31.282Z,6.00
2018-02-16T16:29:59.584Z,5.80
2018-02-16T16:32:27.096Z,5.70
2018-02-16T16:34:54.639Z,5.60
2018-02-16T16:37:22.148Z,5.50
2018-02-16T16:39:49.657Z,5.40
2018-02-16T16:42:17.188Z,5.40
2018-02-16T16:44:44.695Z,5.30
2018-02-16T16:47:12.992Z,5.20
2018-02-16T16:49:40.528Z,5.20
2018-02-16T16:52:08.831Z,5.20
2018-02-16T16:54:36.339Z,5.10
2018-02-16T16:57:03.887Z,5.20
2018-02-16T16:59:31.391Z,4.90
2018-02-16T17:01:59.670Z,4.50
2018-02-16T17:04:27.974Z,4.40
2018-02-16T17:06:55.504Z,4.40
2018-02-16T17:09:23.776Z,4.30
2018-02-16T17:11:52.077Z,4.20
2018-02-16T17:14:19.584Z,4.10
2018-02-16T17:16:47.134Z,4.00
2018-02-16T17:19:14.636Z,3.90
2018-02-16T17:21:42.915Z,3.70
2018-02-16T17:24:11.217Z,3.80
2018-02-16T17:26:38.728Z,3.80
2018-02-16T17:29:06.234Z,3.70
2018-02-16T17:31:34.102Z,3.50
2018-02-16T17:34:01.666Z,3.50
2018-02-16T17:36:29.268Z,3.40
2018-02-16T17:38:58.211Z,3.20
2018-02-16T17:41:25.716Z,3.10
2018-02-16T17:43:53.222Z,3.20
2018-02-16T17:46:20.766Z,3.30
2018-02-16T17:48:49.043Z,3.10
2018-02-16T17:51:17.346Z,2.90
2018-02-16T17:53:44.856Z,2.90
2018-02-16T17:56:13.171Z,2.80
2018-02-16T17:58:40.680Z,2.80
2018-02-16T18:01:08.203Z,2.70
2018-02-16T18:03:35.754Z,2.70
2018-02-16T18:06:03.268Z,2.60
2018-02-16T18:08:30.775Z,2.50
2018-02-16T18:10:58.303Z,2.50
2018-02-16T18:13:26.604Z,2.50
2018-02-16T18:15:54.140Z,2.40
2018-02-16T18:18:22.412Z,2.00
2018-02-16T18:20:50.708Z,1.90
2018-02-16T18:23:18.222Z,1.90
2018-02-16T18:25:45.759Z,1.90
2018-02-16T18:28:13.264Z,2.00
2018-02-16T18:30:41.539Z,1.90
2018-02-16T18:33:09.852Z,1.80
2018-02-16T18:35:37.361Z,1.80
2018-02-16T18:38:04.899Z,1.80
2018-02-16T18:40:32.413Z,1.60
2018-02-16T18:42:59.944Z,1.40
2018-02-16T18:45:27.479Z,1.30
2018-02-16T18:47:55.115Z,1.30
2018-02-16T18:50:22.644Z,1.30
2018-02-16T18:52:50.927Z,1.80
2018-02-16T18:55:19.239Z,1.70
2018-02-16T18:57:46.743Z,1.70
2018-02-16T19:00:15.023Z,1.70
2018-02-16T19:02:43.324Z,1.50
2018-02-16T19:05:10.827Z,1.50
2018-02-16T19:07:38.365Z,1.30
2018-02-16T19:10:05.875Z,1.30
2018-02-16T19:12:34.177Z,1.40
2018-02-16T19:15:01.729Z,1.40
2018-02-16T19:17:30.009Z,1.30
2018-02-16T19:19:57.519Z,1.30
2018-02-16T19:22:25.056Z,1.30
2018-02-16T19:24:52.591Z,1.10
2018-02-16T19:27:20.099Z,1.10
2018-02-16T19:29:47.635Z,1.00
2018-02-16T19:32:15.143Z,1.00
2018-02-16T19:34:43.457Z,1.10
2018-02-16T19:37:10.996Z,1.10
2018-02-16T19:39:39.313Z,0.80
2018-02-16T19:42:06.818Z,0.80
2018-02-16T19:44:35.094Z,0.70
2018-02-16T19:47:03.395Z,0.70
2018-02-16T19:49:30.916Z,0.70
2018-02-16T19:51:58.460Z,0.80
2018-02-16T19:54:25.968Z,0.80
2018-02-16T19:56:53.481Z,0.70
2018-02-16T19:59:21.020Z,0.80
2018-02-16T20:01:48.548Z,0.80
2018-02-16T20:04:16.084Z,0.60
2018-02-16T20:06:44.360Z,0.50
2018-02-16T20:09:12.658Z,0.50
2018-02-16T20:11:40.173Z,0.50
2018-02-16T20:14:07.715Z,0.40
2018-02-16T20:16:35.244Z,0.50
2018-02-16T20:19:02.793Z,0.40
2018-02-16T20:21:30.308Z,0.40
2018-02-16T20:23:57.855Z,0.40
2018-02-16T20:26:25.363Z,0.40
2018-02-16T20:28:53.695Z,0.20
2018-02-16T20:31:21.230Z,0.20
2018-02-16T20:33:48.739Z,0.30
2018-02-16T20:36:16.293Z,0.30
2018-02-16T20:38:43.803Z,0.20
2018-02-16T20:41:11.316Z,0.20
2018-02-16T20:43:38.852Z,0.20
2018-02-16T20:46:06.400Z,0.30
2018-02-16T20:48:33.916Z,0.30
2018-02-16T20:51:02.190Z,0.10
2018-02-16T20:53:29.739Z,0.10
2018-02-16T20:55:58.012Z,0.10
2018-02-16T20:58:26.327Z,0.10
2018-02-16T21:00:53.864Z,0.10
2018-02-16T21:03:22.151Z,-0.10
2018-02-16T21:05:49.680Z,-0.10
2018-02-16T21:08:17.204Z,-0.20
2018-02-16T21:10:44.742Z,-0.20
2018-02-16T21:13:12.255Z,-0.20
2018-02-16T21:15:39.796Z,-0.20
2018-02-16T21:18:07.336Z,-0.20
2018-02-16T21:20:34.930Z,-0.10
2018-02-16T21:23:02.481Z,-0.10
2018-02-16T21:25:29.997Z,-0.10
2018-02-16T21:27:57.557Z,-0.20
2018-02-16T21:30:25.119Z,-0.20
2018-02-16T21:32:52.638Z,-0.20
2018-02-16T21:35:20.960Z,-0.30
2018-02-16T21:37:48.479Z,-0.30
2018-02-16T21:40:16.759Z,-0.30
